Time;durP1;ratioP1;P1;durP2;ratioP2;P2;SDS_P1;SDS_P2;PMS_P1;PMS_P2;Temp;Humidity;BMP_temperature;BMP_pressure;BME280_temperature;BME280_humidity;BME280_pressure;Samples;Min_cycle;Max_cycle;Signal;HPM_P1;HPM_P2
2021/06/21 00:01:34;;;;;;;2.70;2.60;;;;;;;17.07;67.64;99701.66;6245811;23;20027;-70
2021/06/21 00:03:59;;;;;;;2.80;2.67;;;;;;;17.09;67.04;99702.13;6239118;23;20012;-70
2021/06/21 00:06:25;;;;;;;3.45;3.25;;;;;;;17.04;67.37;99697.59;6219728;23;20501;-70
2021/06/21 00:08:51;;;;;;;3.10;2.78;;;;;;;17.06;67.28;99697.25;6219145;23;20000;-70
2021/06/21 00:11:17;;;;;;;3.00;2.88;;;;;;;17.01;67.15;99701.00;6248496;23;20315;-70
2021/06/21 00:13:42;;;;;;;3.30;3.10;;;;;;;16.97;67.43;99699.19;6248750;23;20008;-72
2021/06/21 00:16:09;;;;;;;3.67;3.47;;;;;;;16.94;67.79;99695.16;6252399;23;20174;-70
2021/06/21 00:18:35;;;;;;;3.28;3.08;;;;;;;16.91;67.40;99685.56;6225860;23;20074;-72
2021/06/21 00:21:00;;;;;;;3.55;3.35;;;;;;;16.90;67.26;99688.66;6254598;23;20079;-71
2021/06/21 00:23:26;;;;;;;3.17;2.78;;;;;;;16.89;67.19;99687.03;6255971;23;20051;-71
2021/06/21 00:25:51;;;;;;;3.50;3.30;;;;;;;16.85;67.69;99697.91;6221019;23;20014;-71
2021/06/21 00:28:17;;;;;;;4.28;4.07;;;;;;;16.79;67.33;99693.66;6250186;23;20000;-71
2021/06/21 00:30:43;;;;;;;6.80;3.25;;;;;;;16.78;67.25;99703.09;6248674;23;20118;-71
2021/06/21 00:33:09;;;;;;;3.20;3.00;;;;;;;16.76;67.33;99702.59;6243275;23;20469;-71
2021/06/21 00:35:35;;;;;;;3.17;2.80;;;;;;;16.74;67.36;99697.41;6250749;23;20028;-70
2021/06/21 00:38:01;;;;;;;3.83;3.55;;;;;;;16.75;67.80;99698.22;6246548;23;20008;-70
2021/06/21 00:40:27;;;;;;;2.55;2.35;;;;;;;16.74;67.48;99696.59;6249942;23;20096;-70
2021/06/21 00:42:52;;;;;;;2.83;2.72;;;;;;;16.72;67.75;99696.13;6251216;23;20004;-71
2021/06/21 00:45:22;;;;;;;3.42;3.15;;;;;;;16.67;67.76;99685.22;6249509;23;20011;-71
2021/06/21 00:47:52;;;;;;;3.08;2.97;;;;;;;16.64;67.68;99685.88;6250784;23;20415;-71
2021/06/21 00:50:19;;;;;;;2.90;2.70;;;;;;;16.64;67.74;99694.97;6250426;23;20054;-70
2021/06/21 00:52:45;;;;;;;3.15;2.95;;;;;;;16.64;67.70;99691.41;6198240;23;20023;-72
2021/06/21 00:55:13;;;;;;;3.13;2.92;;;;;;;16.64;67.32;99691.41;6252237;23;20001;-73
2021/06/21 00:57:39;;;;;;;4.07;3.03;;;;;;;16.64;67.27;99696.91;6221937;23;20008;-71
2021/06/21 01:00:12;;;;;;;3.00;2.80;;;;;;;16.64;67.07;99685.88;6251153;23;20000;-70
2021/06/21 01:02:38;;;;;;;2.42;2.33;;;;;;;16.58;67.20;99683.28;6225846;23;20012;-72
2021/06/21 01:05:07;;;;;;;2.55;2.45;;;;;;;16.56;67.27;99684.75;6243766;23;20011;-70
2021/06/21 01:07:32;;;;;;;2.03;1.83;;;;;;;16.55;67.16;99686.69;6250779;22;20031;-69
2021/06/21 01:09:58;;;;;;;2.28;2.17;;;;;;;16.55;67.02;99681.16;6251004;23;20071;-71
2021/06/21 01:12:48;;;;;;;2.83;2.63;;;;;;;16.57;66.98;99683.59;6249409;23;20008;-70
2021/06/21 01:15:39;;;;;;;2.25;2.15;;;;;;;16.50;66.97;99673.06;6245689;23;20004;-69
2021/06/21 01:18:10;;;;;;;2.67;2.58;;;;;;;16.49;66.74;99668.66;6212733;23;20428;-71
2021/06/21 01:20:55;;;;;;;3.00;2.00;;;;;;;16.45;66.65;99662.16;6249420;23;20130;-72
2021/06/21 01:23:42;;;;;;;1.77;1.67;;;;;;;16.43;66.66;99664.44;6225050;23;20004;-72
2021/06/21 01:26:22;;;;;;;2.10;2.00;;;;;;;16.39;66.92;99661.50;6248680;23;20010;-71
2021/06/21 01:29:02;;;;;;;2.13;2.03;;;;;;;16.35;67.09;99673.53;6246057;23;20379;-72
2021/06/21 01:31:46;;;;;;;2.10;2.00;;;;;;;16.37;67.11;99669.31;6217279;23;20008;-72
2021/06/21 01:34:14;;;;;;;1.92;1.83;;;;;;;16.30;67.19;99673.69;6244834;23;20091;-71
2021/06/21 01:36:40;;;;;;;2.40;2.30;;;;;;;16.30;67.29;99666.22;6218661;23;20086;-72
2021/06/21 01:39:06;;;;;;;3.05;2.95;;;;;;;16.32;67.17;99679.69;6248017;23;20031;-73
2021/06/21 01:41:38;;;;;;;2.88;2.67;;;;;;;16.32;67.36;99677.72;6219109;23;20027;-73
2021/06/21 01:44:07;;;;;;;6.75;2.90;;;;;;;16.30;67.42;99680.00;6250794;23;20008;-72
2021/06/21 01:46:36;;;;;;;2.60;2.50;;;;;;;16.30;67.60;99679.22;6252316;23;20015;-73
2021/06/21 01:49:12;;;;;;;3.33;3.00;;;;;;;16.30;67.28;99679.22;6228368;23;20306;-72
2021/06/21 01:51:39;;;;;;;3.20;2.90;;;;;;;16.27;67.39;99693.66;6253598;23;20000;-73
2021/06/21 01:54:06;;;;;;;2.75;2.63;;;;;;;16.25;67.15;99695.91;6256466;23;20000;-72
2021/06/21 01:56:39;;;;;;;3.03;2.83;;;;;;;16.20;67.53;99700.44;6203496;23;20029;-73
2021/06/21 01:59:07;;;;;;;2.45;2.30;;;;;;;16.26;67.32;99703.06;6247737;23;20051;-72
2021/06/21 02:01:34;;;;;;;2.38;2.28;;;;;;;16.27;67.27;99702.72;6221834;23;19996;-71
2021/06/21 02:04:03;;;;;;;3.72;3.42;;;;;;;16.18;67.47;99690.88;6221253;23;20030;-72
2021/06/21 02:06:31;;;;;;;3.13;2.92;;;;;;;16.23;67.39;99705.31;6221835;23;20043;-72
2021/06/21 02:08:59;;;;;;;3.53;3.33;;;;;;;16.21;67.14;99701.25;6248129;23;20008;-71
2021/06/21 02:11:27;;;;;;;2.92;2.83;;;;;;;16.14;67.71;99696.22;6249499;23;20070;-72
2021/06/21 02:13:54;;;;;;;2.15;2.05;;;;;;;16.13;67.63;99700.09;6248053;23;20011;-72
2021/06/21 02:16:21;;;;;;;1.85;1.75;;;;;;;16.13;67.60;99702.84;6224895;23;20054;-71
2021/06/21 02:18:48;;;;;;;3.22;3.05;;;;;;;16.10;67.58;99697.97;6246951;23;20008;-70
2021/06/21 02:21:17;;;;;;;2.75;2.60;;;;;;;16.08;67.54;99697.50;6247717;23;20019;-71
2021/06/21 02:23:43;;;;;;;2.63;2.50;;;;;;;16.04;67.66;99693.75;6226627;23;20334;-71
2021/06/21 02:26:09;;;;;;;2.20;2.10;;;;;;;15.98;67.64;99692.28;6204329;23;20091;-71
2021/06/21 02:28:36;;;;;;;2.15;2.05;;;;;;;16.00;67.88;99696.34;6249659;23;20031;-72
2021/06/21 02:31:05;;;;;;;2.33;2.22;;;;;;;16.04;67.91;99691.81;6200335;23;20012;-72
2021/06/21 02:33:30;;;;;;;8.23;3.05;;;;;;;16.01;67.83;99686.13;6253275;23;20004;-72
2021/06/21 02:35:56;;;;;;;3.28;3.10;;;;;;;15.94;67.95;99691.28;6228335;23;20015;-72
2021/06/21 02:38:22;;;;;;;5.28;3.00;;;;;;;15.86;67.96;99690.94;6251928;23;20027;-72
2021/06/21 02:40:47;;;;;;;2.97;2.78;;;;;;;15.82;68.26;99698.22;6255969;23;20098;-71
2021/06/21 02:43:14;;;;;;;2.83;2.63;;;;;;;15.79;68.22;99707.13;6254470;23;20004;-74
2021/06/21 02:45:40;;;;;;;2.22;2.13;;;;;;;15.79;68.34;99715.41;6256390;23;20031;-70
2021/06/21 02:48:08;;;;;;;2.72;2.63;;;;;;;15.78;68.63;99713.78;6253978;23;20008;-73
2021/06/21 02:50:35;;;;;;;2.03;1.92;;;;;;;15.78;68.50;99708.25;6228714;23;20007;-71
2021/06/21 02:53:21;;;;;;;2.50;2.40;;;;;;;15.81;68.30;99718.66;6255513;23;20004;-72
2021/06/21 02:55:58;;;;;;;2.50;2.25;;;;;;;15.79;68.48;99723.66;6228265;23;20004;-71
2021/06/21 02:58:37;;;;;;;2.00;1.90;;;;;;;15.80;68.43;99722.56;6251481;23;20042;-71
2021/06/21 03:01:05;;;;;;;2.13;2.03;;;;;;;15.78;68.70;99722.03;6249367;23;20010;-72
2021/06/21 03:03:36;;;;;;;2.08;1.98;;;;;;;15.81;68.22;99721.44;6224380;23;20034;-70
2021/06/21 03:06:03;;;;;;;1.90;1.80;;;;;;;15.82;68.10;99731.31;6252673;22;20000;-71
2021/06/21 03:08:29;;;;;;;1.58;1.15;;;;;;;15.78;68.05;99727.56;6252959;23;20004;-71
2021/06/21 03:10:56;;;;;;;0.90;0.90;;;;;;;15.74;68.25;99715.53;6253983;23;20428;-71
2021/06/21 03:13:23;;;;;;;0.93;0.93;;;;;;;15.73;68.08;99733.19;6227236;23;20595;-69
2021/06/21 03:15:50;;;;;;;0.95;0.95;;;;;;;15.68;67.81;99723.13;6228612;23;20012;-69
2021/06/21 03:18:19;;;;;;;1.27;1.17;;;;;;;15.68;68.09;99733.31;6255409;23;20023;-69
2021/06/21 03:20:49;;;;;;;1.00;1.00;;;;;;;15.67;68.03;99726.19;6252296;23;20012;-69
2021/06/21 03:23:14;;;;;;;1.45;1.35;;;;;;;15.65;68.11;99725.69;6202316;23;20441;-70
2021/06/21 03:25:40;;;;;;;1.33;1.23;;;;;;;15.62;67.76;99726.31;6225760;23;20035;-70
2021/06/21 03:28:13;;;;;;;1.08;1.08;;;;;;;15.66;67.83;99724.56;6249345;23;20062;-71
2021/06/21 03:30:48;;;;;;;1.38;1.15;;;;;;;15.68;67.98;99722.28;6248432;23;20304;-70
2021/06/21 03:33:13;;;;;;;0.88;0.88;;;;;;;15.68;67.82;99728.63;6225030;23;20008;-70
2021/06/21 03:35:39;;;;;;;0.85;0.85;;;;;;;15.68;67.61;99733.31;6249182;23;20030;-70
2021/06/21 03:38:25;;;;;;;1.23;1.17;;;;;;;15.72;67.89;99734.31;6225525;23;20003;-68
2021/06/21 03:40:55;;;;;;;1.20;1.20;;;;;;;15.67;67.33;99732.50;6251229;23;20000;-68
2021/06/21 03:43:23;;;;;;;1.08;1.08;;;;;;;15.67;67.61;99720.69;6253234;23;20008;-74
2021/06/21 03:45:51;;;;;;;0.85;0.85;;;;;;;15.72;67.22;99734.31;6255454;23;19999;-72
2021/06/21 03:48:17;;;;;;;1.08;1.08;;;;;;;15.68;67.11;99727.81;6226358;23;20008;-71
2021/06/21 03:50:43;;;;;;;0.95;0.95;;;;;;;15.67;67.41;99726.19;6247827;23;20046;-70
2021/06/21 03:53:09;;;;;;;1.08;0.98;;;;;;;15.66;67.36;99738.34;6200477;23;20032;-72
2021/06/21 03:55:35;;;;;;;0.75;0.75;;;;;;;15.62;67.33;99734.59;6222342;23;20008;-72
2021/06/21 03:58:01;;;;;;;1.15;0.98;;;;;;;15.62;67.05;99740.09;6222935;23;20000;-71
2021/06/21 04:00:29;;;;;;;0.80;0.80;;;;;;;15.60;67.33;99743.16;6225551;23;20024;-69
2021/06/21 04:02:56;;;;;;;0.93;0.93;;;;;;;15.62;67.39;99740.09;6247588;23;20331;-70
2021/06/21 04:05:23;;;;;;;1.77;1.67;;;;;;;15.59;67.08;99743.50;6225013;23;20008;-70
2021/06/21 04:07:49;;;;;;;1.02;0.95;;;;;;;15.53;67.30;99738.09;6248757;22;20034;-71
2021/06/21 04:10:18;;;;;;;1.60;1.20;;;;;;;15.53;67.58;99745.56;6217851;23;20019;-71
2021/06/21 04:12:48;;;;;;;1.33;1.23;;;;;;;15.43;67.24;99743.06;6215070;23;20015;-72
2021/06/21 04:15:16;;;;;;;1.77;1.60;;;;;;;15.49;67.49;99742.66;6243597;23;20000;-71
2021/06/21 04:17:48;;;;;;;1.20;1.20;;;;;;;15.48;67.54;99741.00;6243597;23;20003;-71
2021/06/21 04:20:18;;;;;;;0.82;0.82;;;;;;;15.42;67.45;99750.53;6216517;23;20004;-73
2021/06/21 04:22:44;;;;;;;0.98;0.90;;;;;;;15.36;67.57;99743.50;6221525;23;20004;-72
2021/06/21 04:25:12;;;;;;;1.17;1.08;;;;;;;15.35;67.52;99744.66;6249211;23;20008;-72
2021/06/21 04:27:38;;;;;;;0.93;0.93;;;;;;;15.35;67.61;99755.69;6223940;23;20069;-73
2021/06/21 04:30:09;;;;;;;0.80;0.80;;;;;;;15.37;67.14;99767.19;6227633;23;20059;-73
2021/06/21 04:32:34;;;;;;;1.83;1.23;;;;;;;15.39;67.29;99756.69;6204259;23;20004;-72
2021/06/21 04:35:01;;;;;;;0.65;0.65;;;;;;;15.37;67.00;99758.91;6221359;23;20118;-72
2021/06/21 04:37:26;;;;;;;0.60;0.50;;;;;;;15.29;67.31;99754.19;6220722;23;20059;-72
2021/06/21 04:39:52;;;;;;;0.90;0.90;;;;;;;15.35;66.63;99769.44;6252412;23;20011;-72
2021/06/21 04:42:17;;;;;;;1.02;0.75;;;;;;;15.33;66.67;99760.66;6253945;23;20525;-73
2021/06/21 04:44:44;;;;;;;1.60;0.85;;;;;;;15.28;67.21;99766.31;6225944;23;20009;-72
2021/06/21 04:47:10;;;;;;;0.93;0.90;;;;;;;15.26;67.01;99765.81;6248135;23;20012;-73
2021/06/21 04:49:36;;;;;;;1.23;1.13;;;;;;;15.25;67.10;99765.00;6216832;23;20126;-71
2021/06/21 04:52:03;;;;;;;0.90;0.90;;;;;;;15.19;67.12;99769.81;6248592;23;20030;-72
2021/06/21 04:54:29;;;;;;;1.50;1.40;;;;;;;15.11;67.21;99759.56;6251232;23;20000;-71
2021/06/21 04:56:54;;;;;;;0.85;0.85;;;;;;;15.10;67.10;99763.44;6211323;23;20015;-70
2021/06/21 04:59:19;;;;;;;1.50;1.23;;;;;;;15.05;66.76;99768.25;6225157;23;20008;-70
2021/06/21 05:01:45;;;;;;;0.70;0.70;;;;;;;15.03;66.69;99759.50;6241216;23;20008;-73
2021/06/21 05:04:10;;;;;;;1.15;1.10;;;;;;;14.99;66.97;99756.56;6234122;23;20016;-72
2021/06/21 05:06:37;;;;;;;0.80;0.80;;;;;;;14.95;66.88;99761.88;6216659;22;20136;-70
2021/06/21 05:09:08;;;;;;;1.20;1.20;;;;;;;14.98;67.06;99765.94;6230903;23;20012;-72
2021/06/21 05:11:34;;;;;;;2.63;1.20;;;;;;;14.91;66.59;99752.59;6205668;23;20011;-72
2021/06/21 05:14:00;;;;;;;1.15;1.15;;;;;;;15.01;66.78;99768.09;6257126;23;20007;-72
2021/06/21 05:16:26;;;;;;;1.20;1.00;;;;;;;14.99;67.17;99762.06;6226729;23;20330;-71
2021/06/21 05:18:52;;;;;;;1.48;1.25;;;;;;;14.87;66.94;99753.56;6204478;23;20031;-73
2021/06/21 05:21:18;;;;;;;2.45;1.38;;;;;;;14.91;67.09;99765.53;6252202;23;20008;-72
2021/06/21 05:23:44;;;;;;;1.27;1.17;;;;;;;14.89;67.06;99762.31;6225237;23;20004;-72
2021/06/21 05:26:09;;;;;;;1.48;1.38;;;;;;;14.87;67.24;99759.06;6246008;23;20019;-72
2021/06/21 05:28:35;;;;;;;1.83;1.73;;;;;;;14.87;66.93;99759.06;6222575;23;20016;-70
2021/06/21 05:31:00;;;;;;;1.55;1.45;;;;;;;14.87;67.36;99765.38;6221192;23;20012;-68
2021/06/21 05:33:26;;;;;;;1.52;1.42;;;;;;;14.86;67.47;99763.72;6249413;23;20772;-71
2021/06/21 05:35:51;;;;;;;1.08;1.08;;;;;;;14.88;67.24;99771.66;6247125;23;20008;-69
2021/06/21 05:38:17;;;;;;;1.60;1.50;;;;;;;14.92;67.38;99775.44;6196516;23;20009;-71
2021/06/21 05:40:42;;;;;;;1.15;1.15;;;;;;;14.95;66.93;99778.41;6249992;23;20036;-72
2021/06/21 05:43:08;;;;;;;3.45;1.85;;;;;;;14.92;66.51;99773.53;6223533;23;20004;-72
2021/06/21 05:45:33;;;;;;;1.20;1.20;;;;;;;14.88;66.36;99771.66;6251411;23;20004;-71
2021/06/21 05:47:59;;;;;;;1.15;1.05;;;;;;;14.92;65.85;99783.69;6226041;23;20288;-72
2021/06/21 05:50:24;;;;;;;1.30;1.20;;;;;;;14.92;66.05;99783.69;6227804;23;20011;-72
2021/06/21 05:52:51;;;;;;;1.05;0.95;;;;;;;14.90;65.53;99788.72;6226818;23;20004;-74
2021/06/21 05:55:18;;;;;;;1.83;0.90;;;;;;;14.90;65.51;99791.47;6254894;23;20077;-74
2021/06/21 05:57:44;;;;;;;1.58;1.48;;;;;;;14.90;65.57;99800.53;6254554;23;20056;-75
2021/06/21 06:00:10;;;;;;;2.25;1.27;;;;;;;14.87;66.00;99786.59;6203991;23;20016;-74
2021/06/21 06:02:36;;;;;;;1.10;1.10;;;;;;;14.90;66.21;99802.47;6252771;23;20415;-69
2021/06/21 06:05:03;;;;;;;1.23;1.20;;;;;;;14.88;66.18;99804.69;6214237;23;20064;-74
2021/06/21 06:07:28;;;;;;;1.33;1.23;;;;;;;14.84;66.50;99810.84;6253260;22;20133;-72
2021/06/21 06:09:57;;;;;;;1.10;1.02;;;;;;;14.75;65.99;99796.19;6230000;23;20016;-74
2021/06/21 06:12:23;;;;;;;0.98;0.98;;;;;;;14.75;66.46;99798.13;6229306;23;20083;-76
2021/06/21 06:14:48;;;;;;;1.65;1.08;;;;;;;14.78;66.09;99806.56;6257082;23;20018;-75
2021/06/21 06:17:19;;;;;;;1.25;0.98;;;;;;;14.66;66.35;99798.06;6256179;23;20008;-75
2021/06/21 06:19:44;;;;;;;1.10;1.10;;;;;;;14.63;66.02;99807.72;6230087;23;20000;-76
2021/06/21 06:22:11;;;;;;;1.48;0.82;;;;;;;14.68;66.52;99817.81;6253590;23;20008;-71
2021/06/21 06:24:37;;;;;;;1.27;1.13;;;;;;;14.64;66.60;99811.28;6249183;23;20015;-74
2021/06/21 06:27:03;;;;;;;2.45;1.38;;;;;;;14.67;66.69;99821.66;6252627;23;20000;-72
2021/06/21 06:29:30;;;;;;;2.67;1.20;;;;;;;14.66;66.30;99814.56;6251379;23;20060;-72
2021/06/21 06:31:56;;;;;;;2.13;1.08;;;;;;;14.66;66.26;99822.81;6251711;23;20008;-71
2021/06/21 06:34:22;;;;;;;0.90;0.90;;;;;;;14.61;66.37;99812.72;6224059;23;20011;-71
2021/06/21 06:36:48;;;;;;;0.93;0.90;;;;;;;14.62;66.19;99819.84;6253391;23;20008;-74
2021/06/21 06:39:13;;;;;;;0.70;0.70;;;;;;;14.62;66.33;99816.28;6248707;23;20429;-72
2021/06/21 06:41:39;;;;;;;1.55;1.25;;;;;;;14.61;66.00;99826.47;6251851;23;20008;-71
2021/06/21 06:44:04;;;;;;;0.70;0.70;;;;;;;14.59;66.27;99831.44;6221260;23;20099;-72
2021/06/21 06:46:30;;;;;;;0.57;0.57;;;;;;;14.56;66.85;99832.06;6246080;23;20000;-72
2021/06/21 06:48:55;;;;;;;0.73;0.73;;;;;;;14.56;66.35;99836.72;6223041;23;20004;-72
2021/06/21 06:51:21;;;;;;;1.05;0.88;;;;;;;14.53;67.13;99831.84;6250483;23;20016;-71
2021/06/21 06:54:03;;;;;;;0.80;0.80;;;;;;;14.52;67.03;99835.75;6226613;23;20016;-72
2021/06/21 06:59:13;;;;;;;1.08;1.08;;;;;;;14.51;66.65;99840.41;6227696;23;20403;-72
2021/06/21 07:01:38;;;;;;;1.52;1.42;;;;;;;14.41;67.05;99821.34;6252734;23;20007;-74
2021/06/21 07:04:45;;;;;;;3.05;1.20;;;;;;;14.41;67.76;99838.69;6195507;23;20012;-74
2021/06/21 07:07:10;;;;;;;0.75;0.75;;;;;;;14.26;67.31;99844.50;6249913;22;20020;-76
2021/06/21 07:09:38;;;;;;;1.27;1.25;;;;;;;14.11;67.72;99832.66;6226022;23;20050;-77
2021/06/21 07:12:09;;;;;;;2.00;1.80;;;;;;;14.02;68.14;99834.50;6225607;23;20092;-74
2021/06/21 07:14:37;;;;;;;2.13;1.40;;;;;;;14.03;68.91;99835.28;6228516;23;20012;-77
2021/06/21 07:17:04;;;;;;;4.07;1.13;;;;;;;13.98;69.47;99836.22;6230046;23;20015;-76
2021/06/21 07:19:35;;;;;;;2.92;1.40;;;;;;;13.98;69.79;99844.47;6226731;23;20043;-74
2021/06/21 07:22:14;;;;;;;4.68;1.40;;;;;;;13.98;69.08;99849.16;6227717;23;20332;-73
2021/06/21 07:24:42;;;;;;;1.50;1.40;;;;;;;13.93;69.73;99847.28;6249878;23;20000;-74
2021/06/21 07:27:14;;;;;;;1.92;1.73;;;;;;;13.88;69.93;99844.66;6226663;23;20065;-74
2021/06/21 07:29:39;;;;;;;2.28;1.77;;;;;;;13.87;70.20;99851.25;6250020;23;20054;-74
2021/06/21 07:32:12;;;;;;;2.03;1.30;;;;;;;13.90;70.17;99850.63;6227089;23;20012;-75
2021/06/21 07:35:01;;;;;;;2.67;1.17;;;;;;;13.96;69.54;99852.22;6253449;23;20013;-74
2021/06/21 07:38:09;;;;;;;1.40;1.30;;;;;;;13.92;69.88;99853.94;6250263;23;20063;-74
2021/06/21 07:44:50;;;;;;;1.70;1.60;;;;;;;13.85;70.44;99853.50;6179386;23;20009;-74
2021/06/21 07:47:22;;;;;;;1.63;1.13;;;;;;;13.95;70.19;99856.06;6187393;23;20011;-76
2021/06/21 07:49:49;;;;;;;1.25;1.15;;;;;;;13.92;69.80;99871.22;6204026;23;20012;-78
2021/06/21 07:52:14;;;;;;;1.70;1.20;;;;;;;13.88;69.87;99853.69;6222671;23;20072;-72
2021/06/21 07:54:40;;;;;;;1.88;1.77;;;;;;;13.86;70.45;99868.88;6224996;23;20008;-73
2021/06/21 07:57:07;;;;;;;1.45;1.20;;;;;;;13.84;70.09;99871.91;6222114;23;20296;-73
2021/06/21 07:59:32;;;;;;;1.52;1.42;;;;;;;13.84;70.56;99860.91;6198207;23;20015;-72
2021/06/21 08:01:58;;;;;;;2.35;1.95;;;;;;;13.84;70.71;99873.84;6219889;23;20016;-73
2021/06/21 08:04:23;;;;;;;7.60;1.80;;;;;;;13.87;70.91;99873.25;6192281;23;20327;-71
2021/06/21 08:06:48;;;;;;;3.72;1.42;;;;;;;13.88;70.30;99883.94;6246090;23;20004;-72
2021/06/21 08:09:14;;;;;;;1.40;1.30;;;;;;;13.95;70.31;99878.06;6246300;23;20012;-72
2021/06/21 08:11:39;;;;;;;1.48;1.38;;;;;;;14.00;70.49;99901.88;6240928;23;20011;-72
2021/06/21 08:14:05;;;;;;;0.82;0.82;;;;;;;14.05;70.28;99899.06;6246964;23;20441;-73
2021/06/21 08:16:32;;;;;;;6.25;1.23;;;;;;;14.08;70.08;99892.94;6218369;23;20035;-74
2021/06/21 08:19:00;;;;;;;4.47;1.38;;;;;;;14.06;70.06;99884.16;6238071;23;20292;-74
2021/06/21 08:21:26;;;;;;;1.48;1.38;;;;;;;14.12;70.04;99894.78;6196358;23;20008;-73
2021/06/21 08:23:53;;;;;;;1.75;1.50;;;;;;;14.16;70.18;99899.69;6220514;23;20083;-73
2021/06/21 08:26:19;;;;;;;1.42;1.33;;;;;;;14.21;70.23;99907.84;6219171;23;20083;-72
2021/06/21 08:28:44;;;;;;;1.55;1.45;;;;;;;14.21;70.07;99902.34;6218185;23;20102;-72
2021/06/21 08:31:09;;;;;;;1.95;1.75;;;;;;;14.17;70.44;99904.06;6217240;23;20015;-71
2021/06/21 08:33:35;;;;;;;2.25;1.65;;;;;;;14.24;70.07;99912.75;6241600;23;20456;-71
2021/06/21 08:36:02;;;;;;;2.22;1.95;;;;;;;14.23;69.92;99916.59;6247909;23;20014;-72
2021/06/21 08:38:27;;;;;;;2.55;1.50;;;;;;;14.15;70.17;99907.13;6221133;23;20011;-72
2021/06/21 08:40:53;;;;;;;1.25;1.15;;;;;;;14.23;70.58;99922.09;6246119;22;20339;-72
2021/06/21 08:43:18;;;;;;;2.35;1.52;;;;;;;14.23;70.57;99933.09;6245458;23;20011;-73
2021/06/21 08:45:45;;;;;;;1.10;1.02;;;;;;;14.25;69.95;99930.84;6245022;23;20012;-75
2021/06/21 08:48:11;;;;;;;2.47;1.30;;;;;;;14.29;70.65;99937.38;6214785;23;20011;-73
2021/06/21 08:50:41;;;;;;;2.85;1.65;;;;;;;14.29;69.82;99931.88;6218039;23;20367;-73
2021/06/21 08:53:09;;;;;;;13.52;2.58;;;;;;;14.22;70.44;99940.53;6244467;23;20015;-72
2021/06/21 08:55:34;;;;;;;60.70;12.00;;;;;;;14.14;70.66;99936.53;6215334;23;20016;-72
2021/06/21 08:58:02;;;;;;;33.85;6.40;;;;;;;14.14;70.72;99944.78;6246340;23;20004;-73
2021/06/21 09:00:37;;;;;;;19.15;3.92;;;;;;;14.09;70.55;99931.13;6219931;23;20466;-73
2021/06/21 09:03:03;;;;;;;3.95;1.95;;;;;;;14.09;70.88;99939.38;6246932;23;20023;-71
2021/06/21 09:05:35;;;;;;;3.42;1.63;;;;;;;14.18;71.23;99941.41;6218981;23;20054;-72
2021/06/21 09:08:08;;;;;;;6.63;1.80;;;;;;;14.12;70.87;99938.78;6252773;23;20004;-78
2021/06/21 09:10:40;;;;;;;1.98;1.50;;;;;;;14.22;70.65;99947.97;6223757;23;20008;-75
2021/06/21 09:13:12;;;;;;;3.33;1.63;;;;;;;14.26;70.07;99960.00;6255969;23;20007;-76
2021/06/21 09:15:42;;;;;;;1.60;1.23;;;;;;;14.13;70.44;99934.09;6229453;23;20008;-75
2021/06/21 09:18:49;;;;;;;;;;;;;;;;;;;;;
2021/06/21 09:21:29;;;;;;;1.70;1.08;;;;;;;14.37;70.89;99958.69;6254118;23;20039;-74
2021/06/21 09:23:58;;;;;;;2.22;1.25;;;;;;;14.40;70.79;99966.34;6254917;23;20035;-74
2021/06/21 09:26:28;;;;;;;4.72;1.40;;;;;;;14.41;70.74;99970.72;6226517;23;20011;-74
2021/06/21 09:28:54;;;;;;;1.65;1.55;;;;;;;14.42;70.82;99969.59;6254979;23;20004;-76
2021/06/21 09:31:23;;;;;;;1.35;1.10;;;;;;;14.41;70.37;99967.16;6250573;23;20016;-74
2021/06/21 09:34:33;;;;;;;1.60;1.50;;;;;;;14.37;70.29;99944.94;6250602;23;20015;-77
2021/06/21 09:37:35;;;;;;;;;;;;;;;;;;;;;
2021/06/21 09:39:55;;;;;;;3.88;1.45;;;;;;;14.36;70.50;99948.00;6248579;22;20335;-79
2021/06/21 09:42:49;;;;;;;1.85;1.20;;;;;;;14.49;70.44;99963.69;6226096;23;20004;-82
2021/06/21 09:45:17;;;;;;;1.38;1.20;;;;;;;14.49;70.90;99961.75;6253945;23;20010;-72
2021/06/21 09:48:02;;;;;;;;;;;;;;;;;;;;;
2021/06/21 09:50:30;;;;;;;;;;;;;;;14.61;70.53;99965.97;6251620;23;20035;-77
2021/06/21 09:53:13;;;;;;;;;;;;;;;;;;;;;
2021/06/21 09:55:43;;;;;;;2.17;1.40;;;;;;;14.43;70.52;99959.41;6249521;23;20019;-73
2021/06/21 09:58:15;;;;;;;3.17;1.25;;;;;;;14.64;70.18;99977.19;6224641;23;20084;-73
2021/06/21 10:00:51;;;;;;;0.95;0.95;;;;;;;14.67;70.71;99981.28;6236153;23;19995;-80
2021/06/21 10:03:27;;;;;;;1.65;1.50;;;;;;;14.68;70.55;99971.91;6243309;23;20011;-75
2021/06/21 10:06:05;;;;;;;2.53;1.30;;;;;;;14.74;70.38;99983.63;6266120;23;19996;-72
2021/06/21 10:08:53;;;;;;;0.90;0.90;;;;;;;14.81;69.78;99987.59;6240927;23;20009;-73
2021/06/21 10:11:46;;;;;;;1.45;1.33;;;;;;;14.87;69.99;100002.09;6265820;23;20023;-74
2021/06/21 10:14:17;;;;;;;1.77;1.20;;;;;;;14.86;69.59;99991.38;6235747;23;20059;-74
2021/06/21 10:16:45;;;;;;;1.00;0.90;;;;;;;14.84;70.01;99998.00;6229794;23;20031;-75
2021/06/21 10:19:12;;;;;;;2.20;1.30;;;;;;;14.89;69.86;99999.03;6254268;23;20007;-74
2021/06/21 10:21:40;;;;;;;1.40;1.30;;;;;;;14.94;69.84;100007.22;6226642;23;20028;-75
2021/06/21 10:24:15;;;;;;;0.80;0.80;;;;;;;15.08;69.40;100007.19;6230121;23;20011;-75
2021/06/21 10:26:49;;;;;;;1.48;1.38;;;;;;;15.11;68.84;100010.16;6252620;23;20027;-74
2021/06/21 10:29:15;;;;;;;1.50;0.95;;;;;;;15.07;69.56;99995.38;6221725;23;20383;-75
2021/06/21 10:31:43;;;;;;;0.95;0.93;;;;;;;15.26;69.27;100013.69;6219835;23;20004;-73
2021/06/21 10:34:15;;;;;;;2.15;1.13;;;;;;;15.30;69.28;100006.47;6244620;23;20031;-73
2021/06/21 10:36:52;;;;;;;2.05;1.17;;;;;;;15.44;68.66;100014.72;6241536;23;20432;-73
2021/06/21 10:39:25;;;;;;;3.72;1.48;;;;;;;15.45;68.27;100019.91;6220881;22;20020;-74
2021/06/21 10:42:11;;;;;;;3.85;1.85;;;;;;;15.56;67.83;100016.94;6247304;23;20046;-73
2021/06/21 10:44:57;;;;;;;0.93;0.93;;;;;;;15.45;67.85;100008.91;6221548;23;20012;-74
2021/06/21 10:47:23;;;;;;;1.23;1.15;;;;;;;15.61;67.68;100022.31;6243369;23;20015;-74
2021/06/21 10:50:09;;;;;;;1.58;1.48;;;;;;;15.59;68.08;100002.53;6224826;23;20004;-74
2021/06/21 10:52:58;;;;;;;4.22;1.42;;;;;;;15.63;66.95;100017.34;6247292;23;20084;-74
2021/06/21 10:55:27;;;;;;;5.47;1.52;;;;;;;15.57;67.18;100024.09;6233113;23;20004;-74
2021/06/21 10:57:56;;;;;;;1.20;1.20;;;;;;;15.60;67.71;100017.94;6245878;23;20446;-73
2021/06/21 11:00:49;;;;;;;0.90;0.90;;;;;;;15.71;67.82;100013.81;6249305;23;20007;-72
2021/06/21 11:03:25;;;;;;;1.10;1.02;;;;;;;15.83;67.53;100021.59;6249726;23;19996;-74
2021/06/21 11:05:55;;;;;;;1.20;1.10;;;;;;;15.77;67.19;100012.59;6243812;23;20420;-73
2021/06/21 11:08:25;;;;;;;4.53;1.52;;;;;;;15.82;66.59;100015.25;6211730;23;20008;-73
2021/06/21 11:10:54;;;;;;;1.60;1.10;;;;;;;15.81;67.16;100024.66;6245231;23;20006;-74
2021/06/21 11:13:35;;;;;;;1.65;1.20;;;;;;;15.84;66.93;100024.03;6244942;23;21061;-74
2021/06/21 11:16:22;;;;;;;1.13;0.90;;;;;;;15.78;66.58;100027.19;6208293;23;20681;-83
2021/06/21 11:19:21;;;;;;;1.25;1.08;;;;;;;15.74;66.80;100035.28;6218484;23;20027;-73
2021/06/21 11:22:08;;;;;;;1.65;0.95;;;;;;;15.63;66.57;100033.88;6214342;23;20394;-74
2021/06/21 11:24:36;;;;;;;1.02;0.93;;;;;;;15.58;66.83;100031.22;6248649;23;20006;-73
2021/06/21 11:27:02;;;;;;;1.17;1.08;;;;;;;15.54;66.77;100045.59;6250117;23;20019;-75
2021/06/21 11:29:31;;;;;;;1.40;1.10;;;;;;;15.40;66.50;100019.22;6218576;23;20058;-72
2021/06/21 11:32:01;;;;;;;3.63;1.65;;;;;;;15.44;67.01;100048.59;6220494;23;20019;-74
2021/06/21 11:34:56;;;;;;;1.30;1.20;;;;;;;15.45;66.90;100049.38;6247457;23;20058;-73
2021/06/21 11:37:39;;;;;;;1.05;1.00;;;;;;;15.43;67.07;100052.44;6249653;23;20000;-72
2021/06/21 11:40:15;;;;;;;3.55;2.05;;;;;;;15.49;67.42;100044.91;6247290;22;20043;-72
2021/06/21 11:42:45;;;;;;;2.05;1.27;;;;;;;15.52;67.03;100064.41;6249963;23;20003;-71
2021/06/21 11:45:30;;;;;;;1.85;1.30;;;;;;;15.56;67.14;100061.03;6250391;23;20011;-72
2021/06/21 11:47:56;;;;;;;3.67;1.48;;;;;;;15.56;66.96;100047.25;6246168;23;20004;-73
2021/06/21 11:50:21;;;;;;;1.10;1.00;;;;;;;15.62;66.96;100054.28;6251104;23;20015;-72
2021/06/21 11:52:47;;;;;;;2.67;1.58;;;;;;;15.59;67.34;100054.91;6251275;23;20090;-72
2021/06/21 11:55:15;;;;;;;1.40;1.30;;;;;;;15.57;67.14;100054.41;6224854;23;20016;-72
2021/06/21 11:57:48;;;;;;;0.70;0.70;;;;;;;15.65;67.85;100062.75;6224312;23;20010;-72